sensor_id;sensor_type;location;lat;lon;timestamp;P1;durP1;ratioP1;P2;durP2;ratioP2
68938;SDS011;59064;45.294;11.816;2023-05-09T00:01:19;7.70;;;4.60;;
68938;SDS011;59064;45.294;11.816;2023-05-09T00:03:45;7.70;;;5.60;;
68938;SDS011;59064;45.294;11.816;2023-05-09T00:06:11;7.50;;;4.50;;
68938;SDS011;59064;45.294;11.816;2023-05-09T00:08:37;7.90;;;5.10;;
68938;SDS011;59064;45.294;11.816;2023-05-09T00:11:03;9.50;;;4.80;;
68938;SDS011;59064;45.294;11.816;2023-05-09T00:13:28;9.30;;;5.20;;
68938;SDS011;59064;45.294;11.816;2023-05-09T00:15:54;8.90;;;5.10;;
68938;SDS011;59064;45.294;11.816;2023-05-09T00:18:21;7.80;;;4.80;;
68938;SDS011;59064;45.294;11.816;2023-05-09T00:20:47;8.50;;;4.90;;
68938;SDS011;59064;45.294;11.816;2023-05-09T00:23:13;8.10;;;4.90;;
68938;SDS011;59064;45.294;11.816;2023-05-09T00:25:39;8.10;;;4.80;;
68938;SDS011;59064;45.294;11.816;2023-05-09T00:28:05;9.20;;;5.40;;
68938;SDS011;59064;45.294;11.816;2023-05-09T00:30:30;7.30;;;5.20;;
68938;SDS011;59064;45.294;11.816;2023-05-09T00:32:56;7.80;;;5.10;;
68938;SDS011;59064;45.294;11.816;2023-05-09T00:35:21;8.60;;;5.20;;
68938;SDS011;59064;45.294;11.816;2023-05-09T00:37:47;7.50;;;5.00;;
68938;SDS011;59064;45.294;11.816;2023-05-09T00:40:12;11.00;;;5.90;;
68938;SDS011;59064;45.294;11.816;2023-05-09T00:42:38;7.90;;;5.20;;
68938;SDS011;59064;45.294;11.816;2023-05-09T00:45:04;9.10;;;5.80;;
68938;SDS011;59064;45.294;11.816;2023-05-09T00:47:31;8.20;;;5.70;;
68938;SDS011;59064;45.294;11.816;2023-05-09T00:49:57;10.30;;;6.00;;
68938;SDS011;59064;45.294;11.816;2023-05-09T00:52:24;7.90;;;4.80;;
68938;SDS011;59064;45.294;11.816;2023-05-09T00:54:50;7.20;;;5.20;;
68938;SDS011;59064;45.294;11.816;2023-05-09T00:57:20;10.10;;;5.70;;
68938;SDS011;59064;45.294;11.816;2023-05-09T00:59:47;7.60;;;5.20;;
68938;SDS011;59064;45.294;11.816;2023-05-09T01:02:13;8.80;;;5.60;;
68938;SDS011;59064;45.294;11.816;2023-05-09T01:04:41;9.00;;;5.50;;
68938;SDS011;59064;45.294;11.816;2023-05-09T01:21:02;10.50;;;6.40;;
68938;SDS011;59064;45.294;11.816;2023-05-09T01:26:24;9.30;;;6.00;;
68938;SDS011;59064;45.294;11.816;2023-05-09T01:31:54;10.30;;;6.40;;
68938;SDS011;59064;45.294;11.816;2023-05-09T01:34:21;9.70;;;6.70;;
68938;SDS011;59064;45.294;11.816;2023-05-09T01:36:50;9.80;;;6.20;;
68938;SDS011;59064;45.294;11.816;2023-05-09T01:39:22;9.20;;;6.20;;
68938;SDS011;59064;45.294;11.816;2023-05-09T01:41:50;9.90;;;6.50;;
68938;SDS011;59064;45.294;11.816;2023-05-09T01:44:18;11.50;;;6.90;;
68938;SDS011;59064;45.294;11.816;2023-05-09T01:46:46;10.00;;;6.60;;
68938;SDS011;59064;45.294;11.816;2023-05-09T01:49:13;11.00;;;7.00;;
68938;SDS011;59064;45.294;11.816;2023-05-09T01:51:41;10.40;;;6.10;;
68938;SDS011;59064;45.294;11.816;2023-05-09T01:54:07;11.30;;;7.20;;
68938;SDS011;59064;45.294;11.816;2023-05-09T01:56:35;11.70;;;7.40;;
68938;SDS011;59064;45.294;11.816;2023-05-09T01:59:02;9.10;;;6.10;;
68938;SDS011;59064;45.294;11.816;2023-05-09T02:01:30;11.10;;;6.60;;
68938;SDS011;59064;45.294;11.816;2023-05-09T02:03:56;10.20;;;6.40;;
68938;SDS011;59064;45.294;11.816;2023-05-09T02:06:22;9.10;;;5.90;;
68938;SDS011;59064;45.294;11.816;2023-05-09T02:08:49;10.90;;;6.60;;
68938;SDS011;59064;45.294;11.816;2023-05-09T02:11:15;8.60;;;5.70;;
68938;SDS011;59064;45.294;11.816;2023-05-09T02:13:40;9.10;;;6.70;;
68938;SDS011;59064;45.294;11.816;2023-05-09T02:16:06;8.60;;;6.10;;
68938;SDS011;59064;45.294;11.816;2023-05-09T02:18:32;11.30;;;7.50;;
68938;SDS011;59064;45.294;11.816;2023-05-09T02:21:00;10.40;;;7.10;;
68938;SDS011;59064;45.294;11.816;2023-05-09T02:23:27;10.80;;;6.20;;
68938;SDS011;59064;45.294;11.816;2023-05-09T02:25:53;10.70;;;6.90;;
68938;SDS011;59064;45.294;11.816;2023-05-09T02:28:19;10.00;;;6.40;;
68938;SDS011;59064;45.294;11.816;2023-05-09T02:30:47;10.10;;;7.10;;
68938;SDS011;59064;45.294;11.816;2023-05-09T02:33:14;10.20;;;6.90;;
68938;SDS011;59064;45.294;11.816;2023-05-09T02:35:42;9.10;;;6.20;;
68938;SDS011;59064;45.294;11.816;2023-05-09T02:38:10;10.60;;;7.20;;
68938;SDS011;59064;45.294;11.816;2023-05-09T02:40:37;11.20;;;6.60;;
68938;SDS011;59064;45.294;11.816;2023-05-09T02:43:03;10.20;;;6.80;;
68938;SDS011;59064;45.294;11.816;2023-05-09T02:45:29;10.60;;;7.10;;
68938;SDS011;59064;45.294;11.816;2023-05-09T02:47:55;9.40;;;6.40;;
68938;SDS011;59064;45.294;11.816;2023-05-09T02:50:20;9.60;;;6.50;;
68938;SDS011;59064;45.294;11.816;2023-05-09T02:52:46;8.70;;;6.30;;
68938;SDS011;59064;45.294;11.816;2023-05-09T02:55:11;10.40;;;5.70;;
68938;SDS011;59064;45.294;11.816;2023-05-09T02:57:37;9.90;;;6.90;;
68938;SDS011;59064;45.294;11.816;2023-05-09T03:00:03;9.20;;;6.30;;
68938;SDS011;59064;45.294;11.816;2023-05-09T03:02:36;9.10;;;6.40;;
68938;SDS011;59064;45.294;11.816;2023-05-09T03:05:02;9.50;;;6.50;;
68938;SDS011;59064;45.294;11.816;2023-05-09T03:07:28;11.20;;;7.40;;
68938;SDS011;59064;45.294;11.816;2023-05-09T03:09:54;9.40;;;6.40;;
68938;SDS011;59064;45.294;11.816;2023-05-09T03:12:20;10.30;;;6.70;;
68938;SDS011;59064;45.294;11.816;2023-05-09T03:14:46;12.30;;;6.90;;
68938;SDS011;59064;45.294;11.816;2023-05-09T03:17:11;10.90;;;7.30;;
68938;SDS011;59064;45.294;11.816;2023-05-09T03:19:41;10.80;;;7.00;;
68938;SDS011;59064;45.294;11.816;2023-05-09T03:22:07;11.10;;;7.20;;
68938;SDS011;59064;45.294;11.816;2023-05-09T03:24:32;14.20;;;7.60;;
68938;SDS011;59064;45.294;11.816;2023-05-09T03:26:58;10.50;;;7.50;;
68938;SDS011;59064;45.294;11.816;2023-05-09T03:29:24;13.60;;;7.90;;
68938;SDS011;59064;45.294;11.816;2023-05-09T03:31:50;11.60;;;7.80;;
68938;SDS011;59064;45.294;11.816;2023-05-09T03:34:16;14.20;;;8.10;;
68938;SDS011;59064;45.294;11.816;2023-05-09T03:36:41;11.50;;;7.40;;
68938;SDS011;59064;45.294;11.816;2023-05-09T03:39:07;11.90;;;8.10;;
68938;SDS011;59064;45.294;11.816;2023-05-09T03:41:34;13.00;;;8.30;;
68938;SDS011;59064;45.294;11.816;2023-05-09T03:44:00;12.90;;;7.90;;
68938;SDS011;59064;45.294;11.816;2023-05-09T03:46:27;12.20;;;8.10;;
68938;SDS011;59064;45.294;11.816;2023-05-09T03:48:52;11.80;;;7.70;;
68938;SDS011;59064;45.294;11.816;2023-05-09T03:51:17;12.30;;;7.50;;
68938;SDS011;59064;45.294;11.816;2023-05-09T03:53:44;13.40;;;7.40;;
68938;SDS011;59064;45.294;11.816;2023-05-09T03:56:11;12.40;;;8.00;;
68938;SDS011;59064;45.294;11.816;2023-05-09T03:58:37;14.40;;;8.70;;
68938;SDS011;59064;45.294;11.816;2023-05-09T04:01:02;12.90;;;8.30;;
68938;SDS011;59064;45.294;11.816;2023-05-09T04:03:28;14.20;;;8.30;;
68938;SDS011;59064;45.294;11.816;2023-05-09T04:05:55;11.40;;;7.10;;
68938;SDS011;59064;45.294;11.816;2023-05-09T04:08:20;12.30;;;8.20;;
68938;SDS011;59064;45.294;11.816;2023-05-09T04:10:48;12.10;;;7.90;;
68938;SDS011;59064;45.294;11.816;2023-05-09T04:13:14;13.10;;;8.10;;
68938;SDS011;59064;45.294;11.816;2023-05-09T04:15:40;13.00;;;8.60;;
68938;SDS011;59064;45.294;11.816;2023-05-09T04:18:06;12.30;;;8.10;;
68938;SDS011;59064;45.294;11.816;2023-05-09T04:20:31;12.70;;;8.70;;
68938;SDS011;59064;45.294;11.816;2023-05-09T04:22:57;14.00;;;8.40;;
68938;SDS011;59064;45.294;11.816;2023-05-09T04:25:23;12.90;;;8.50;;
68938;SDS011;59064;45.294;11.816;2023-05-09T04:27:48;12.10;;;7.10;;
68938;SDS011;59064;45.294;11.816;2023-05-09T04:30:14;13.20;;;8.00;;
68938;SDS011;59064;45.294;11.816;2023-05-09T04:32:40;13.60;;;8.10;;
68938;SDS011;59064;45.294;11.816;2023-05-09T04:35:09;12.30;;;8.40;;
68938;SDS011;59064;45.294;11.816;2023-05-09T04:37:35;13.20;;;8.80;;
68938;SDS011;59064;45.294;11.816;2023-05-09T04:40:01;12.40;;;9.10;;
68938;SDS011;59064;45.294;11.816;2023-05-09T04:42:28;12.90;;;8.20;;
68938;SDS011;59064;45.294;11.816;2023-05-09T04:44:53;12.80;;;8.90;;
68938;SDS011;59064;45.294;11.816;2023-05-09T04:47:19;13.30;;;8.10;;
68938;SDS011;59064;45.294;11.816;2023-05-09T04:49:45;11.90;;;8.20;;
68938;SDS011;59064;45.294;11.816;2023-05-09T04:52:10;12.60;;;8.60;;
68938;SDS011;59064;45.294;11.816;2023-05-09T04:54:36;11.70;;;8.40;;
68938;SDS011;59064;45.294;11.816;2023-05-09T04:57:01;12.30;;;8.20;;
68938;SDS011;59064;45.294;11.816;2023-05-09T04:59:28;12.60;;;8.30;;
68938;SDS011;59064;45.294;11.816;2023-05-09T05:01:54;13.40;;;8.50;;
68938;SDS011;59064;45.294;11.816;2023-05-09T05:04:20;14.40;;;8.80;;
68938;SDS011;59064;45.294;11.816;2023-05-09T05:06:45;12.20;;;8.20;;
68938;SDS011;59064;45.294;11.816;2023-05-09T05:09:11;12.50;;;8.20;;
68938;SDS011;59064;45.294;11.816;2023-05-09T05:11:36;12.10;;;8.70;;
68938;SDS011;59064;45.294;11.816;2023-05-09T05:14:02;10.30;;;7.60;;
68938;SDS011;59064;45.294;11.816;2023-05-09T05:16:28;11.10;;;7.70;;
68938;SDS011;59064;45.294;11.816;2023-05-09T05:18:53;11.70;;;7.30;;
68938;SDS011;59064;45.294;11.816;2023-05-09T05:21:19;13.60;;;8.00;;
68938;SDS011;59064;45.294;11.816;2023-05-09T05:23:44;11.10;;;8.00;;
68938;SDS011;59064;45.294;11.816;2023-05-09T05:26:10;12.80;;;8.30;;
68938;SDS011;59064;45.294;11.816;2023-05-09T05:28:35;13.90;;;8.20;;
68938;SDS011;59064;45.294;11.816;2023-05-09T05:31:01;11.90;;;8.80;;
68938;SDS011;59064;45.294;11.816;2023-05-09T05:33:26;10.80;;;7.90;;
68938;SDS011;59064;45.294;11.816;2023-05-09T05:35:52;11.30;;;8.00;;
68938;SDS011;59064;45.294;11.816;2023-05-09T05:38:17;12.20;;;7.80;;
68938;SDS011;59064;45.294;11.816;2023-05-09T05:40:43;11.30;;;7.90;;
68938;SDS011;59064;45.294;11.816;2023-05-09T05:43:08;11.20;;;7.90;;
68938;SDS011;59064;45.294;11.816;2023-05-09T05:45:34;11.80;;;8.30;;
68938;SDS011;59064;45.294;11.816;2023-05-09T05:48:00;12.70;;;8.50;;
68938;SDS011;59064;45.294;11.816;2023-05-09T05:50:26;11.00;;;7.60;;
68938;SDS011;59064;45.294;11.816;2023-05-09T05:52:53;11.70;;;8.60;;
68938;SDS011;59064;45.294;11.816;2023-05-09T05:55:18;11.80;;;7.70;;
68938;SDS011;59064;45.294;11.816;2023-05-09T05:57:44;9.00;;;6.20;;
68938;SDS011;59064;45.294;11.816;2023-05-09T06:00:11;13.20;;;7.20;;
68938;SDS011;59064;45.294;11.816;2023-05-09T06:02:40;12.90;;;7.20;;
68938;SDS011;59064;45.294;11.816;2023-05-09T06:05:09;11.40;;;6.80;;
68938;SDS011;59064;45.294;11.816;2023-05-09T06:07:35;9.00;;;6.50;;
68938;SDS011;59064;45.294;11.816;2023-05-09T06:10:01;11.70;;;6.80;;
68938;SDS011;59064;45.294;11.816;2023-05-09T06:12:27;10.30;;;6.70;;
68938;SDS011;59064;45.294;11.816;2023-05-09T06:14:52;10.40;;;6.50;;
68938;SDS011;59064;45.294;11.816;2023-05-09T06:17:18;10.20;;;6.90;;
68938;SDS011;59064;45.294;11.816;2023-05-09T06:19:43;9.10;;;6.50;;
68938;SDS011;59064;45.294;11.816;2023-05-09T06:22:09;9.00;;;6.20;;
68938;SDS011;59064;45.294;11.816;2023-05-09T06:24:35;9.10;;;6.30;;
68938;SDS011;59064;45.294;11.816;2023-05-09T06:27:01;8.00;;;4.40;;
68938;SDS011;59064;45.294;11.816;2023-05-09T06:29:27;5.50;;;3.40;;
68938;SDS011;59064;45.294;11.816;2023-05-09T06:31:52;7.50;;;5.70;;
68938;SDS011;59064;45.294;11.816;2023-05-09T06:34:18;11.10;;;6.30;;
68938;SDS011;59064;45.294;11.816;2023-05-09T06:36:43;8.10;;;5.50;;
68938;SDS011;59064;45.294;11.816;2023-05-09T06:39:09;8.90;;;5.90;;
68938;SDS011;59064;45.294;11.816;2023-05-09T06:41:34;9.10;;;6.30;;
68938;SDS011;59064;45.294;11.816;2023-05-09T06:44:00;8.80;;;5.90;;
68938;SDS011;59064;45.294;11.816;2023-05-09T06:46:26;8.80;;;6.20;;
68938;SDS011;59064;45.294;11.816;2023-05-09T06:48:53;8.70;;;5.50;;
68938;SDS011;59064;45.294;11.816;2023-05-09T06:51:18;9.80;;;4.60;;
68938;SDS011;59064;45.294;11.816;2023-05-09T06:53:44;7.70;;;4.50;;
68938;SDS011;59064;45.294;11.816;2023-05-09T06:56:10;5.80;;;3.20;;
68938;SDS011;59064;45.294;11.816;2023-05-09T06:58:36;10.70;;;4.30;;
68938;SDS011;59064;45.294;11.816;2023-05-09T07:01:01;7.50;;;5.20;;
68938;SDS011;59064;45.294;11.816;2023-05-09T07:03:28;8.60;;;6.00;;
68938;SDS011;59064;45.294;11.816;2023-05-09T07:05:54;6.80;;;4.20;;
68938;SDS011;59064;45.294;11.816;2023-05-09T07:08:23;7.90;;;5.30;;
68938;SDS011;59064;45.294;11.816;2023-05-09T07:10:49;7.60;;;5.20;;
68938;SDS011;59064;45.294;11.816;2023-05-09T07:13:14;7.10;;;4.90;;
68938;SDS011;59064;45.294;11.816;2023-05-09T07:15:40;6.70;;;4.00;;
68938;SDS011;59064;45.294;11.816;2023-05-09T07:18:05;8.20;;;4.90;;
68938;SDS011;59064;45.294;11.816;2023-05-09T07:20:31;7.30;;;4.40;;
68938;SDS011;59064;45.294;11.816;2023-05-09T07:22:56;8.90;;;5.10;;
68938;SDS011;59064;45.294;11.816;2023-05-09T07:25:22;6.60;;;3.60;;
68938;SDS011;59064;45.294;11.816;2023-05-09T07:27:48;8.00;;;4.30;;
68938;SDS011;59064;45.294;11.816;2023-05-09T07:30:13;8.00;;;4.20;;
68938;SDS011;59064;45.294;11.816;2023-05-09T07:32:39;6.80;;;4.40;;
68938;SDS011;59064;45.294;11.816;2023-05-09T07:35:05;8.50;;;4.60;;
68938;SDS011;59064;45.294;11.816;2023-05-09T07:37:30;6.80;;;4.00;;
68938;SDS011;59064;45.294;11.816;2023-05-09T07:39:56;8.30;;;5.00;;
68938;SDS011;59064;45.294;11.816;2023-05-09T07:42:21;8.80;;;4.00;;
68938;SDS011;59064;45.294;11.816;2023-05-09T07:44:47;8.40;;;4.90;;
68938;SDS011;59064;45.294;11.816;2023-05-09T07:47:12;8.40;;;5.90;;
68938;SDS011;59064;45.294;11.816;2023-05-09T07:49:38;7.30;;;4.80;;
68938;SDS011;59064;45.294;11.816;2023-05-09T07:52:04;9.00;;;5.90;;
68938;SDS011;59064;45.294;11.816;2023-05-09T07:54:32;8.50;;;5.00;;
68938;SDS011;59064;45.294;11.816;2023-05-09T07:56:57;8.50;;;5.60;;
68938;SDS011;59064;45.294;11.816;2023-05-09T07:59:23;9.30;;;5.00;;
68938;SDS011;59064;45.294;11.816;2023-05-09T08:01:48;8.50;;;5.70;;
68938;SDS011;59064;45.294;11.816;2023-05-09T08:04:14;10.70;;;6.10;;
68938;SDS011;59064;45.294;11.816;2023-05-09T08:06:39;7.90;;;5.20;;
68938;SDS011;59064;45.294;11.816;2023-05-09T08:09:05;7.70;;;4.60;;
68938;SDS011;59064;45.294;11.816;2023-05-09T08:11:34;8.70;;;5.70;;
68938;SDS011;59064;45.294;11.816;2023-05-09T08:14:00;9.00;;;6.20;;
68938;SDS011;59064;45.294;11.816;2023-05-09T08:16:26;8.40;;;4.90;;
68938;SDS011;59064;45.294;11.816;2023-05-09T08:18:51;8.10;;;5.80;;
68938;SDS011;59064;45.294;11.816;2023-05-09T08:21:18;8.00;;;5.60;;
68938;SDS011;59064;45.294;11.816;2023-05-09T08:23:43;9.90;;;6.20;;
68938;SDS011;59064;45.294;11.816;2023-05-09T08:26:09;9.60;;;5.90;;
68938;SDS011;59064;45.294;11.816;2023-05-09T08:28:34;8.20;;;5.50;;
68938;SDS011;59064;45.294;11.816;2023-05-09T08:31:00;9.60;;;5.50;;
68938;SDS011;59064;45.294;11.816;2023-05-09T08:33:25;10.60;;;6.20;;
68938;SDS011;59064;45.294;11.816;2023-05-09T08:35:52;8.40;;;5.60;;
68938;SDS011;59064;45.294;11.816;2023-05-09T08:38:18;8.30;;;5.50;;
68938;SDS011;59064;45.294;11.816;2023-05-09T08:40:44;8.30;;;5.20;;
68938;SDS011;59064;45.294;11.816;2023-05-09T08:43:09;7.70;;;5.60;;
68938;SDS011;59064;45.294;11.816;2023-05-09T08:45:46;8.60;;;4.20;;
68938;SDS011;59064;45.294;11.816;2023-05-09T08:48:15;8.00;;;5.20;;
68938;SDS011;59064;45.294;11.816;2023-05-09T08:50:44;7.80;;;4.80;;
68938;SDS011;59064;45.294;11.816;2023-05-09T08:53:10;6.50;;;4.60;;
68938;SDS011;59064;45.294;11.816;2023-05-09T08:55:36;7.10;;;4.70;;
68938;SDS011;59064;45.294;11.816;2023-05-09T08:58:04;6.60;;;3.90;;
68938;SDS011;59064;45.294;11.816;2023-05-09T09:00:32;7.60;;;4.20;;
68938;SDS011;59064;45.294;11.816;2023-05-09T09:02:59;8.60;;;5.20;;
68938;SDS011;59064;45.294;11.816;2023-05-09T09:05:29;6.80;;;3.90;;
68938;SDS011;59064;45.294;11.816;2023-05-09T09:07:55;7.80;;;4.80;;
68938;SDS011;59064;45.294;11.816;2023-05-09T09:10:22;6.40;;;4.10;;
68938;SDS011;59064;45.294;11.816;2023-05-09T09:12:52;6.90;;;4.00;;
68938;SDS011;59064;45.294;11.816;2023-05-09T09:15:18;8.40;;;5.70;;
68938;SDS011;59064;45.294;11.816;2023-05-09T09:17:47;8.80;;;5.90;;
68938;SDS011;59064;45.294;11.816;2023-05-09T09:20:15;8.90;;;6.00;;
68938;SDS011;59064;45.294;11.816;2023-05-09T09:22:44;8.70;;;4.60;;
68938;SDS011;59064;45.294;11.816;2023-05-09T09:25:12;6.60;;;4.20;;
68938;SDS011;59064;45.294;11.816;2023-05-09T09:27:37;6.90;;;4.80;;
68938;SDS011;59064;45.294;11.816;2023-05-09T09:30:07;8.20;;;5.20;;
68938;SDS011;59064;45.294;11.816;2023-05-09T09:32:34;11.40;;;5.00;;
68938;SDS011;59064;45.294;11.816;2023-05-09T09:35:04;9.40;;;7.10;;
68938;SDS011;59064;45.294;11.816;2023-05-09T09:37:34;10.70;;;6.10;;
68938;SDS011;59064;45.294;11.816;2023-05-09T09:40:01;8.20;;;5.20;;
68938;SDS011;59064;45.294;11.816;2023-05-09T09:42:39;10.20;;;6.20;;
68938;SDS011;59064;45.294;11.816;2023-05-09T09:45:09;10.90;;;6.00;;
68938;SDS011;59064;45.294;11.816;2023-05-09T09:47:36;8.90;;;5.30;;
68938;SDS011;59064;45.294;11.816;2023-05-09T09:52:57;8.90;;;6.40;;
68938;SDS011;59064;45.294;11.816;2023-05-09T09:55:25;7.40;;;4.50;;
68938;SDS011;59064;45.294;11.816;2023-05-09T09:57:51;9.30;;;4.50;;
68938;SDS011;59064;45.294;11.816;2023-05-09T10:00:26;6.60;;;3.80;;
68938;SDS011;59064;45.294;11.816;2023-05-09T10:02:56;8.40;;;5.30;;
68938;SDS011;59064;45.294;11.816;2023-05-09T10:05:23;8.60;;;5.10;;
68938;SDS011;59064;45.294;11.816;2023-05-09T10:07:53;8.40;;;4.80;;
68938;SDS011;59064;45.294;11.816;2023-05-09T10:10:27;8.30;;;5.00;;
68938;SDS011;59064;45.294;11.816;2023-05-09T10:12:55;7.40;;;5.10;;
68938;SDS011;59064;45.294;11.816;2023-05-09T10:15:22;8.10;;;5.50;;
68938;SDS011;59064;45.294;11.816;2023-05-09T10:17:49;9.20;;;5.20;;
68938;SDS011;59064;45.294;11.816;2023-05-09T10:20:20;10.00;;;4.60;;
68938;SDS011;59064;45.294;11.816;2023-05-09T10:22:45;7.20;;;4.50;;
68938;SDS011;59064;45.294;11.816;2023-05-09T10:25:19;6.30;;;4.70;;
68938;SDS011;59064;45.294;11.816;2023-05-09T10:27:46;7.50;;;4.60;;
68938;SDS011;59064;45.294;11.816;2023-05-09T10:30:26;6.10;;;3.80;;
68938;SDS011;59064;45.294;11.816;2023-05-09T10:33:03;5.70;;;3.90;;
68938;SDS011;59064;45.294;11.816;2023-05-09T10:35:35;7.20;;;5.00;;
68938;SDS011;59064;45.294;11.816;2023-05-09T10:38:04;7.80;;;5.80;;
68938;SDS011;59064;45.294;11.816;2023-05-09T10:40:31;6.60;;;4.40;;
68938;SDS011;59064;45.294;11.816;2023-05-09T10:42:58;8.00;;;5.30;;
68938;SDS011;59064;45.294;11.816;2023-05-09T10:45:24;6.70;;;4.70;;
68938;SDS011;59064;45.294;11.816;2023-05-09T10:47:50;7.60;;;5.20;;
68938;SDS011;59064;45.294;11.816;2023-05-09T10:50:17;6.40;;;4.20;;
68938;SDS011;59064;45.294;11.816;2023-05-09T10:55:38;6.20;;;3.50;;
68938;SDS011;59064;45.294;11.816;2023-05-09T10:58:19;7.30;;;3.90;;
68938;SDS011;59064;45.294;11.816;2023-05-09T11:00:58;6.10;;;3.30;;
68938;SDS011;59064;45.294;11.816;2023-05-09T11:03:26;6.60;;;3.20;;
68938;SDS011;59064;45.294;11.816;2023-05-09T11:05:53;7.40;;;3.40;;
68938;SDS011;59064;45.294;11.816;2023-05-09T11:08:27;6.10;;;4.10;;
68938;SDS011;59064;45.294;11.816;2023-05-09T11:10:54;7.60;;;4.70;;
68938;SDS011;59064;45.294;11.816;2023-05-09T11:13:29;8.00;;;4.40;;
68938;SDS011;59064;45.294;11.816;2023-05-09T11:18:24;5.20;;;3.30;;
68938;SDS011;59064;45.294;11.816;2023-05-09T11:20:50;5.40;;;3.30;;
68938;SDS011;59064;45.294;11.816;2023-05-09T11:23:20;5.10;;;3.60;;
68938;SDS011;59064;45.294;11.816;2023-05-09T11:25:49;5.20;;;3.20;;
68938;SDS011;59064;45.294;11.816;2023-05-09T11:28:28;6.00;;;3.10;;
68938;SDS011;59064;45.294;11.816;2023-05-09T11:31:12;4.40;;;2.50;;
68938;SDS011;59064;45.294;11.816;2023-05-09T11:33:39;6.40;;;3.30;;
68938;SDS011;59064;45.294;11.816;2023-05-09T11:41:25;5.30;;;3.40;;
68938;SDS011;59064;45.294;11.816;2023-05-09T11:43:52;4.80;;;3.30;;
68938;SDS011;59064;45.294;11.816;2023-05-09T11:46:19;5.10;;;3.20;;
68938;SDS011;59064;45.294;11.816;2023-05-09T11:48:45;5.40;;;3.20;;
68938;SDS011;59064;45.294;11.816;2023-05-09T11:51:17;5.10;;;3.40;;
68938;SDS011;59064;45.294;11.816;2023-05-09T11:53:44;4.60;;;3.20;;
68938;SDS011;59064;45.294;11.816;2023-05-09T11:56:11;5.30;;;3.30;;
68938;SDS011;59064;45.294;11.816;2023-05-09T11:58:38;6.00;;;2.60;;
68938;SDS011;59064;45.294;11.816;2023-05-09T12:01:04;4.90;;;3.20;;
68938;SDS011;59064;45.294;11.816;2023-05-09T12:03:30;4.40;;;2.90;;
68938;SDS011;59064;45.294;11.816;2023-05-09T12:05:55;6.80;;;2.70;;
68938;SDS011;59064;45.294;11.816;2023-05-09T12:08:22;5.20;;;3.60;;
68938;SDS011;59064;45.294;11.816;2023-05-09T12:10:49;8.20;;;2.80;;
68938;SDS011;59064;45.294;11.816;2023-05-09T12:13:14;5.30;;;3.20;;
68938;SDS011;59064;45.294;11.816;2023-05-09T12:15:40;5.40;;;3.20;;
68938;SDS011;59064;45.294;11.816;2023-05-09T12:18:06;5.10;;;3.70;;
68938;SDS011;59064;45.294;11.816;2023-05-09T12:20:39;4.60;;;2.90;;
68938;SDS011;59064;45.294;11.816;2023-05-09T12:23:07;6.30;;;3.60;;
68938;SDS011;59064;45.294;11.816;2023-05-09T12:25:34;5.10;;;3.20;;
68938;SDS011;59064;45.294;11.816;2023-05-09T12:28:00;4.60;;;3.20;;
68938;SDS011;59064;45.294;11.816;2023-05-09T12:30:25;5.00;;;2.90;;
68938;SDS011;59064;45.294;11.816;2023-05-09T12:32:51;6.00;;;3.60;;
68938;SDS011;59064;45.294;11.816;2023-05-09T12:35:17;5.10;;;3.40;;
68938;SDS011;59064;45.294;11.816;2023-05-09T12:37:59;5.30;;;3.60;;
68938;SDS011;59064;45.294;11.816;2023-05-09T12:40:25;3.80;;;2.30;;
68938;SDS011;59064;45.294;11.816;2023-05-09T12:42:51;5.30;;;3.10;;
68938;SDS011;59064;45.294;11.816;2023-05-09T12:45:24;5.60;;;3.10;;
68938;SDS011;59064;45.294;11.816;2023-05-09T12:47:51;4.40;;;2.90;;
68938;SDS011;59064;45.294;11.816;2023-05-09T12:50:17;5.20;;;2.80;;
68938;SDS011;59064;45.294;11.816;2023-05-09T12:52:48;4.50;;;2.90;;
68938;SDS011;59064;45.294;11.816;2023-05-09T12:55:18;6.00;;;3.40;;
68938;SDS011;59064;45.294;11.816;2023-05-09T12:57:49;5.10;;;3.10;;
68938;SDS011;59064;45.294;11.816;2023-05-09T13:00:22;4.80;;;3.20;;
68938;SDS011;59064;45.294;11.816;2023-05-09T13:02:48;5.50;;;3.50;;
68938;SDS011;59064;45.294;11.816;2023-05-09T13:05:16;6.10;;;3.00;;
68938;SDS011;59064;45.294;11.816;2023-05-09T13:07:44;4.50;;;2.90;;
68938;SDS011;59064;45.294;11.816;2023-05-09T13:10:18;4.20;;;2.60;;
68938;SDS011;59064;45.294;11.816;2023-05-09T13:12:47;4.60;;;2.60;;
68938;SDS011;59064;45.294;11.816;2023-05-09T13:15:15;4.60;;;2.90;;
68938;SDS011;59064;45.294;11.816;2023-05-09T13:17:44;5.70;;;2.90;;
68938;SDS011;59064;45.294;11.816;2023-05-09T13:20:12;6.80;;;3.00;;
68938;SDS011;59064;45.294;11.816;2023-05-09T13:22:38;4.20;;;2.80;;
68938;SDS011;59064;45.294;11.816;2023-05-09T13:25:04;4.40;;;3.10;;
68938;SDS011;59064;45.294;11.816;2023-05-09T13:27:31;4.80;;;3.00;;
68938;SDS011;59064;45.294;11.816;2023-05-09T13:29:57;4.20;;;2.60;;
68938;SDS011;59064;45.294;11.816;2023-05-09T13:32:22;5.20;;;3.10;;
68938;SDS011;59064;45.294;11.816;2023-05-09T13:34:49;3.90;;;2.80;;
68938;SDS011;59064;45.294;11.816;2023-05-09T13:37:15;4.30;;;2.80;;
68938;SDS011;59064;45.294;11.816;2023-05-09T13:39:41;4.50;;;2.90;;
68938;SDS011;59064;45.294;11.816;2023-05-09T13:42:06;3.80;;;2.50;;
68938;SDS011;59064;45.294;11.816;2023-05-09T13:44:32;4.10;;;2.40;;
68938;SDS011;59064;45.294;11.816;2023-05-09T13:46:58;4.30;;;2.40;;
68938;SDS011;59064;45.294;11.816;2023-05-09T13:49:24;4.40;;;2.70;;
68938;SDS011;59064;45.294;11.816;2023-05-09T13:51:51;4.50;;;2.60;;
68938;SDS011;59064;45.294;11.816;2023-05-09T13:54:18;4.20;;;2.30;;
68938;SDS011;59064;45.294;11.816;2023-05-09T13:56:45;4.70;;;3.10;;
68938;SDS011;59064;45.294;11.816;2023-05-09T13:59:11;5.00;;;2.90;;
68938;SDS011;59064;45.294;11.816;2023-05-09T14:01:37;4.60;;;2.40;;
68938;SDS011;59064;45.294;11.816;2023-05-09T14:04:02;4.00;;;2.40;;
68938;SDS011;59064;45.294;11.816;2023-05-09T14:06:28;5.10;;;2.40;;
68938;SDS011;59064;45.294;11.816;2023-05-09T14:08:54;5.30;;;2.00;;
68938;SDS011;59064;45.294;11.816;2023-05-09T14:11:20;3.20;;;2.00;;
68938;SDS011;59064;45.294;11.816;2023-05-09T14:13:46;3.60;;;2.20;;
68938;SDS011;59064;45.294;11.816;2023-05-09T14:16:11;4.10;;;2.30;;
68938;SDS011;59064;45.294;11.816;2023-05-09T14:18:37;3.60;;;2.20;;
68938;SDS011;59064;45.294;11.816;2023-05-09T14:21:03;3.70;;;1.80;;
68938;SDS011;59064;45.294;11.816;2023-05-09T14:23:29;3.70;;;1.90;;
68938;SDS011;59064;45.294;11.816;2023-05-09T14:25:55;3.80;;;2.30;;
68938;SDS011;59064;45.294;11.816;2023-05-09T14:28:21;3.70;;;2.00;;
68938;SDS011;59064;45.294;11.816;2023-05-09T14:30:47;4.60;;;2.20;;
68938;SDS011;59064;45.294;11.816;2023-05-09T14:33:12;3.70;;;2.30;;
68938;SDS011;59064;45.294;11.816;2023-05-09T14:35:38;4.70;;;2.40;;
68938;SDS011;59064;45.294;11.816;2023-05-09T14:38:04;4.00;;;2.20;;
68938;SDS011;59064;45.294;11.816;2023-05-09T14:40:29;4.60;;;2.30;;
68938;SDS011;59064;45.294;11.816;2023-05-09T14:43:02;4.30;;;2.20;;
68938;SDS011;59064;45.294;11.816;2023-05-09T14:45:31;4.10;;;2.40;;
68938;SDS011;59064;45.294;11.816;2023-05-09T14:48:01;3.90;;;2.20;;
68938;SDS011;59064;45.294;11.816;2023-05-09T14:50:27;3.20;;;1.80;;
68938;SDS011;59064;45.294;11.816;2023-05-09T14:52:53;3.60;;;2.20;;
68938;SDS011;59064;45.294;11.816;2023-05-09T14:55:19;4.80;;;2.80;;
68938;SDS011;59064;45.294;11.816;2023-05-09T14:57:48;4.00;;;2.20;;
68938;SDS011;59064;45.294;11.816;2023-05-09T15:00:13;3.60;;;2.20;;
68938;SDS011;59064;45.294;11.816;2023-05-09T15:02:40;4.10;;;2.70;;